createdAt,value
2022-10-20T00:01:19.041Z,79.62
2022-10-20T00:04:04.399Z,79.37
2022-10-20T00:06:49.879Z,79.42
2022-10-20T00:09:35.120Z,79.44
2022-10-20T00:12:20.639Z,79.46
2022-10-20T00:15:06.321Z,79.56
2022-10-20T00:17:52.189Z,79.98
2022-10-20T00:20:40.097Z,79.49
2022-10-20T00:23:25.616Z,78.90
2022-10-20T00:26:14.307Z,79.03
2022-10-20T00:29:01.499Z,79.19
2022-10-20T00:31:46.676Z,79.05
2022-10-20T00:34:33.165Z,79.06
2022-10-20T00:37:18.350Z,78.84
2022-10-20T00:40:04.463Z,78.90
2022-10-20T00:42:50.227Z,78.66
2022-10-20T00:45:35.857Z,78.85
2022-10-20T00:48:25.988Z,78.71
2022-10-20T00:51:16.137Z,78.71
2022-10-20T00:54:15.212Z,78.83
2022-10-20T00:59:51.578Z,78.42
2022-10-20T01:02:37.172Z,78.04
2022-10-20T01:05:23.171Z,77.89
2022-10-20T01:08:08.572Z,77.57
2022-10-20T01:11:10.907Z,77.38
2022-10-20T01:14:02.779Z,77.96
2022-10-20T01:16:57.096Z,77.88
2022-10-20T01:20:00.395Z,77.02
2022-10-20T01:23:07.181Z,77.94
2022-10-20T01:25:58.677Z,77.78
2022-10-20T01:28:54.112Z,78.63
2022-10-20T01:31:43.111Z,78.84
2022-10-20T01:34:37.750Z,79.35
2022-10-20T01:37:48.566Z,79.58
2022-10-20T01:40:44.802Z,79.54
2022-10-20T01:43:35.688Z,79.71
2022-10-20T01:46:25.450Z,79.71
2022-10-20T01:49:14.409Z,79.14
2022-10-20T01:52:00.825Z,79.06
2022-10-20T01:54:46.072Z,79.12
2022-10-20T01:57:38.441Z,79.32
2022-10-20T02:00:24.311Z,79.59
2022-10-20T02:03:31.010Z,79.88
2022-10-20T02:06:31.656Z,80.08
2022-10-20T02:09:40.151Z,79.42
2022-10-20T02:12:29.469Z,79.87
2022-10-20T02:15:19.421Z,79.94
2022-10-20T02:18:08.636Z,79.76
2022-10-20T02:20:57.019Z,79.84
2022-10-20T02:23:45.993Z,79.97
2022-10-20T02:26:34.034Z,80.17
2022-10-20T02:29:25.602Z,79.80
2022-10-20T02:32:12.570Z,79.78
2022-10-20T02:34:58.192Z,79.67
2022-10-20T02:37:43.907Z,79.23
2022-10-20T02:40:29.793Z,79.45
2022-10-20T02:43:15.405Z,78.94
2022-10-20T02:46:00.608Z,78.67
2022-10-20T02:48:45.910Z,78.25
2022-10-20T02:51:31.344Z,78.52
2022-10-20T02:54:17.108Z,78.63
2022-10-20T02:57:02.585Z,78.66
2022-10-20T02:59:47.923Z,79.59
2022-10-20T03:02:33.583Z,80.08
2022-10-20T03:05:19.227Z,80.17
2022-10-20T03:08:04.720Z,79.76
2022-10-20T03:10:50.030Z,80.03
2022-10-20T03:13:35.467Z,79.95
2022-10-20T03:16:20.871Z,80.06
2022-10-20T03:19:09.158Z,80.37
2022-10-20T03:21:56.923Z,80.06
2022-10-20T03:24:42.426Z,80.40
2022-10-20T03:27:27.744Z,80.49
2022-10-20T03:30:13.026Z,80.36
2022-10-20T03:32:58.281Z,80.41
2022-10-20T03:35:43.649Z,80.15
2022-10-20T03:38:28.910Z,80.62
2022-10-20T03:41:14.104Z,80.26
2022-10-20T03:43:59.386Z,79.90
2022-10-20T03:46:44.683Z,80.01
2022-10-20T03:49:31.661Z,79.85
2022-10-20T03:52:16.887Z,79.58
2022-10-20T03:55:02.356Z,79.96
2022-10-20T03:57:47.630Z,79.67
2022-10-20T04:00:33.110Z,80.03
2022-10-20T04:03:18.349Z,80.34
2022-10-20T04:06:04.086Z,80.17
2022-10-20T04:08:49.517Z,79.94
2022-10-20T04:11:34.931Z,80.08
2022-10-20T04:14:20.233Z,79.61
2022-10-20T04:17:06.496Z,79.82
2022-10-20T04:19:52.060Z,80.01
2022-10-20T04:22:38.743Z,79.98
2022-10-20T04:25:24.367Z,80.02
2022-10-20T04:28:09.663Z,79.93
2022-10-20T04:30:57.151Z,80.16
2022-10-20T04:33:42.709Z,79.75
2022-10-20T04:36:28.358Z,79.37
2022-10-20T04:39:14.315Z,79.46
2022-10-20T04:41:59.922Z,79.99
2022-10-20T04:44:45.665Z,80.01
2022-10-20T04:47:33.141Z,79.98
2022-10-20T04:50:18.710Z,80.08
2022-10-20T04:53:16.226Z,79.95
2022-10-20T04:56:02.527Z,79.68
2022-10-20T04:58:58.599Z,79.75
2022-10-20T05:01:45.390Z,79.75
2022-10-20T05:04:31.967Z,79.91
2022-10-20T05:07:17.317Z,79.76
2022-10-20T05:10:03.919Z,80.11
2022-10-20T05:12:49.999Z,80.38
2022-10-20T05:15:35.220Z,80.55
2022-10-20T05:18:20.950Z,80.77
2022-10-20T05:21:12.078Z,81.25
2022-10-20T05:23:59.935Z,81.03
2022-10-20T05:26:45.511Z,80.93
2022-10-20T05:29:31.155Z,79.79
2022-10-20T05:32:16.396Z,79.38
2022-10-20T05:35:01.830Z,79.45
2022-10-20T05:37:47.164Z,79.42
2022-10-20T05:40:32.675Z,79.98
2022-10-20T05:43:18.134Z,79.67
2022-10-20T05:46:04.421Z,79.59
2022-10-20T05:48:53.718Z,79.36
2022-10-20T05:51:39.151Z,79.76
2022-10-20T05:54:24.701Z,79.82
2022-10-20T05:57:10.479Z,79.31
2022-10-20T05:59:55.939Z,78.63
2022-10-20T06:02:41.337Z,79.08
2022-10-20T06:05:26.640Z,79.00
2022-10-20T06:08:12.147Z,78.19
2022-10-20T06:11:01.675Z,78.31
2022-10-20T06:13:51.681Z,78.20
2022-10-20T06:16:38.765Z,78.28
2022-10-20T06:19:25.289Z,78.24
2022-10-20T06:22:10.487Z,77.63
2022-10-20T06:24:55.659Z,77.66
2022-10-20T06:27:42.388Z,78.10
2022-10-20T06:30:28.012Z,78.45
2022-10-20T06:33:14.913Z,77.85
2022-10-20T06:36:03.190Z,77.45
2022-10-20T06:38:52.156Z,77.34
2022-10-20T06:41:38.363Z,77.21
2022-10-20T06:44:24.504Z,76.50
2022-10-20T06:47:10.426Z,77.03
2022-10-20T06:49:55.924Z,77.56
2022-10-20T06:52:41.295Z,77.75
2022-10-20T06:55:26.668Z,77.47
2022-10-20T06:58:13.902Z,77.30
2022-10-20T07:01:14.730Z,77.25
2022-10-20T07:04:04.402Z,76.00
2022-10-20T07:06:49.624Z,76.57
2022-10-20T07:09:35.693Z,76.88
2022-10-20T07:12:21.062Z,76.40
2022-10-20T07:15:06.945Z,76.13
2022-10-20T07:17:52.049Z,76.79
2022-10-20T07:20:37.629Z,76.46
2022-10-20T07:23:22.989Z,75.15
2022-10-20T07:26:30.073Z,74.45
2022-10-20T07:29:15.714Z,74.61
2022-10-20T07:32:02.140Z,74.66
2022-10-20T07:34:47.705Z,74.58
2022-10-20T07:37:33.229Z,74.81
2022-10-20T07:40:18.559Z,74.92
2022-10-20T07:43:04.159Z,75.10
2022-10-20T07:45:49.351Z,74.86
2022-10-20T07:48:34.942Z,74.85
2022-10-20T07:51:30.090Z,73.86
2022-10-20T07:54:15.724Z,72.51
2022-10-20T07:57:01.023Z,72.26
2022-10-20T07:59:46.431Z,70.48
2022-10-20T08:02:31.739Z,70.77
2022-10-20T08:05:17.191Z,70.92
2022-10-20T08:08:02.857Z,71.68
2022-10-20T08:10:48.423Z,70.58
2022-10-20T08:13:34.369Z,70.95
2022-10-20T08:16:22.477Z,72.07
2022-10-20T08:22:07.180Z,71.60
2022-10-20T08:24:52.389Z,71.89
2022-10-20T08:27:37.983Z,71.25
2022-10-20T08:30:24.325Z,70.31
2022-10-20T08:33:10.255Z,70.82
2022-10-20T08:35:56.013Z,70.67
2022-10-20T08:38:42.503Z,71.36
2022-10-20T08:41:43.484Z,70.66
2022-10-20T08:44:44.612Z,69.94
2022-10-20T08:47:33.625Z,68.93
2022-10-20T08:50:21.863Z,69.17
2022-10-20T08:53:10.396Z,69.99
2022-10-20T08:55:56.527Z,68.37
2022-10-20T08:58:44.399Z,68.29
2022-10-20T09:01:34.542Z,68.83
2022-10-20T09:04:58.441Z,69.03
2022-10-20T09:07:45.013Z,68.81
2022-10-20T09:10:37.624Z,67.63
2022-10-20T09:13:28.898Z,66.25
2022-10-20T09:16:34.960Z,64.69
2022-10-20T09:19:28.706Z,63.67
2022-10-20T09:22:16.051Z,65.50
2022-10-20T09:25:01.873Z,62.24
2022-10-20T09:27:47.633Z,61.80
2022-10-20T09:30:35.373Z,63.95
2022-10-20T09:33:34.009Z,64.20
2022-10-20T09:36:21.880Z,63.37
2022-10-20T09:39:20.350Z,63.55
2022-10-20T09:42:13.736Z,64.70
2022-10-20T09:45:06.588Z,63.40
2022-10-20T09:47:56.416Z,64.03
2022-10-20T09:50:49.771Z,63.50
2022-10-20T09:53:50.833Z,62.85
2022-10-20T09:56:40.471Z,61.88
2022-10-20T09:59:36.006Z,61.74
2022-10-20T10:02:21.657Z,59.40
2022-10-20T10:05:19.047Z,60.84
2022-10-20T10:08:04.824Z,61.69
2022-10-20T10:11:12.894Z,61.06
2022-10-20T10:13:58.619Z,61.99
2022-10-20T10:16:44.262Z,61.38
2022-10-20T10:19:31.991Z,62.12
2022-10-20T10:22:19.029Z,63.65
2022-10-20T10:25:07.011Z,59.98
2022-10-20T10:28:07.161Z,59.90
2022-10-20T10:31:23.695Z,59.21
2022-10-20T10:34:12.847Z,59.37
2022-10-20T10:36:59.238Z,59.07
2022-10-20T10:39:49.803Z,58.61
2022-10-20T10:42:48.543Z,58.92
2022-10-20T10:46:04.331Z,60.37
2022-10-20T10:49:11.311Z,58.81
2022-10-20T10:52:36.708Z,59.62
2022-10-20T10:55:47.939Z,57.90
2022-10-20T10:58:33.859Z,54.33
2022-10-20T11:01:44.180Z,56.99
2022-10-20T11:04:48.755Z,57.52
2022-10-20T11:07:49.784Z,59.00
2022-10-20T11:10:47.650Z,57.58
2022-10-20T11:13:36.169Z,57.13
2022-10-20T11:16:26.323Z,56.58
2022-10-20T11:19:17.913Z,56.01
2022-10-20T11:22:35.096Z,56.06
2022-10-20T11:25:44.717Z,54.56
2022-10-20T11:28:44.269Z,53.77
2022-10-20T11:31:48.450Z,51.28
2022-10-20T11:34:40.911Z,52.56
2022-10-20T11:37:32.674Z,55.44
2022-10-20T11:40:29.667Z,55.11
2022-10-20T11:43:23.576Z,55.10
2022-10-20T11:46:25.066Z,55.02
2022-10-20T11:49:12.577Z,56.05
2022-10-20T11:52:34.940Z,55.67
2022-10-20T11:55:40.119Z,55.07
2022-10-20T11:58:53.655Z,51.40
2022-10-20T12:02:17.158Z,50.55
2022-10-20T12:05:11.577Z,51.08
2022-10-20T12:08:05.779Z,52.04
2022-10-20T12:11:17.992Z,53.90
2022-10-20T12:14:15.607Z,51.66
2022-10-20T12:17:31.206Z,51.95
2022-10-20T12:20:22.716Z,50.85
2022-10-20T12:23:43.097Z,51.87
2022-10-20T12:26:34.203Z,52.82
2022-10-20T12:29:33.026Z,52.56
2022-10-20T12:32:25.585Z,50.46
2022-10-20T12:35:11.118Z,52.53
2022-10-20T12:38:04.232Z,51.54
2022-10-20T12:40:58.136Z,52.84
2022-10-20T12:43:53.340Z,52.77
2022-10-20T12:46:43.423Z,52.28
2022-10-20T12:49:36.352Z,51.44
2022-10-20T12:52:26.648Z,53.02
2022-10-20T12:55:31.764Z,51.44
2022-10-20T12:58:17.082Z,51.39
2022-10-20T13:01:09.025Z,51.78
2022-10-20T13:03:54.726Z,50.88
2022-10-20T13:06:41.647Z,50.66
2022-10-20T13:09:28.232Z,50.55
2022-10-20T13:12:29.186Z,50.44
2022-10-20T13:15:19.987Z,51.71
2022-10-20T13:18:11.680Z,51.47
2022-10-20T13:21:22.758Z,51.19
2022-10-20T13:24:22.035Z,51.61
2022-10-20T13:27:09.800Z,50.49
2022-10-20T13:29:55.760Z,49.87
2022-10-20T13:33:34.400Z,51.18
2022-10-20T13:36:36.096Z,50.75
2022-10-20T13:39:43.359Z,50.68
2022-10-20T13:42:45.594Z,51.33
2022-10-20T13:45:31.663Z,51.50
2022-10-20T13:48:29.143Z,50.57
2022-10-20T13:51:25.684Z,51.74
2022-10-20T13:54:27.432Z,51.01
2022-10-20T13:57:24.608Z,50.64
2022-10-20T14:00:29.084Z,49.92
2022-10-20T14:03:17.817Z,50.29
2022-10-20T14:06:03.455Z,51.31
2022-10-20T14:08:48.830Z,51.31
2022-10-20T14:11:35.480Z,51.24
2022-10-20T14:14:27.693Z,51.16
2022-10-20T14:17:20.497Z,50.33
2022-10-20T14:20:22.089Z,50.72
2022-10-20T14:23:10.711Z,51.00
2022-10-20T14:25:57.521Z,51.27
2022-10-20T14:28:45.622Z,51.82
2022-10-20T14:31:31.769Z,51.95
2022-10-20T14:34:35.198Z,52.17
2022-10-20T14:37:40.602Z,53.36
2022-10-20T14:40:29.970Z,53.42
2022-10-20T14:43:19.661Z,52.89
2022-10-20T14:46:07.653Z,53.02
2022-10-20T14:48:53.289Z,52.10
2022-10-20T14:51:45.192Z,51.66
2022-10-20T14:54:31.174Z,52.46
2022-10-20T14:57:16.989Z,52.77
2022-10-20T15:00:25.340Z,53.17
2022-10-20T15:03:12.131Z,53.51
2022-10-20T15:06:04.216Z,53.33
2022-10-20T15:08:54.925Z,54.20
2022-10-20T15:11:40.484Z,53.54
2022-10-20T15:14:26.256Z,53.32
2022-10-20T15:17:40.867Z,53.60
2022-10-20T15:20:49.079Z,54.88
2022-10-20T15:23:34.985Z,55.18
2022-10-20T15:26:20.290Z,56.06
2022-10-20T15:29:08.062Z,56.26
2022-10-20T15:31:55.505Z,56.19
2022-10-20T15:34:41.703Z,56.74
2022-10-20T15:37:28.890Z,57.47
2022-10-20T15:40:14.802Z,57.48
2022-10-20T15:43:00.520Z,57.18
2022-10-20T15:45:56.059Z,57.81
2022-10-20T15:48:43.214Z,57.85
2022-10-20T15:51:32.274Z,58.36
2022-10-20T15:54:22.612Z,58.56
2022-10-20T15:57:08.579Z,59.09
2022-10-20T15:59:54.223Z,58.46
2022-10-20T16:02:39.716Z,59.01
2022-10-20T16:05:26.804Z,59.17
2022-10-20T16:08:12.502Z,59.12
2022-10-20T16:10:58.051Z,59.70
2022-10-20T16:13:43.561Z,59.21
2022-10-20T16:16:28.942Z,60.64
2022-10-20T16:19:14.489Z,59.94
2022-10-20T16:21:59.998Z,59.94
2022-10-20T16:24:46.999Z,59.34
2022-10-20T16:27:33.923Z,60.11
2022-10-20T16:30:19.797Z,59.77
2022-10-20T16:33:05.679Z,60.25
2022-10-20T16:35:51.331Z,60.50
2022-10-20T16:38:40.091Z,60.67
2022-10-20T16:41:26.173Z,60.41
2022-10-20T16:44:12.357Z,60.62
2022-10-20T16:46:58.531Z,61.13
2022-10-20T16:49:44.365Z,61.51
2022-10-20T16:52:29.854Z,61.37
2022-10-20T16:55:16.421Z,61.59
2022-10-20T16:58:02.732Z,61.86
2022-10-20T17:01:02.403Z,62.01
2022-10-20T17:03:51.023Z,62.76
2022-10-20T17:06:37.131Z,63.74
2022-10-20T17:09:26.016Z,64.15
2022-10-20T17:12:12.335Z,63.98
2022-10-20T17:14:58.881Z,64.38
2022-10-20T17:17:59.465Z,64.61
2022-10-20T17:21:02.524Z,65.23
2022-10-20T17:24:20.761Z,65.56
2022-10-20T17:27:11.321Z,65.77
2022-10-20T17:29:58.173Z,65.52
2022-10-20T17:32:46.908Z,65.16
2022-10-20T17:35:40.962Z,64.83
2022-10-20T17:38:29.772Z,65.08
2022-10-20T17:41:16.032Z,65.54
2022-10-20T17:44:03.246Z,65.94
2022-10-20T17:46:50.479Z,66.39
2022-10-20T17:49:36.155Z,66.79
2022-10-20T17:52:22.842Z,66.38
2022-10-20T17:55:09.749Z,66.79
2022-10-20T17:57:56.696Z,66.97
2022-10-20T18:00:56.190Z,68.11
2022-10-20T18:03:43.499Z,68.12
2022-10-20T18:06:34.485Z,67.99
2022-10-20T18:09:21.105Z,68.23
2022-10-20T18:12:06.600Z,67.85
2022-10-20T18:14:52.190Z,68.04
2022-10-20T18:17:37.576Z,67.96
2022-10-20T18:20:23.035Z,67.81
2022-10-20T18:23:08.665Z,67.06
2022-10-20T18:25:54.674Z,66.98
2022-10-20T18:28:45.679Z,66.50
2022-10-20T18:31:35.334Z,66.10
2022-10-20T18:34:23.764Z,65.83
2022-10-20T18:37:09.552Z,66.06
2022-10-20T18:39:55.161Z,65.61
2022-10-20T18:42:40.537Z,65.67
2022-10-20T18:45:26.973Z,64.97
2022-10-20T18:48:14.674Z,64.85
2022-10-20T18:51:02.141Z,64.42
2022-10-20T18:53:52.176Z,64.40
2022-10-20T18:56:37.596Z,64.39
2022-10-20T18:59:23.282Z,64.64
2022-10-20T19:02:10.406Z,64.81
2022-10-20T19:04:58.647Z,65.13
2022-10-20T19:07:45.118Z,65.19
2022-10-20T19:10:30.512Z,64.89
2022-10-20T19:13:15.913Z,64.94
2022-10-20T19:16:05.869Z,64.71
2022-10-20T19:18:53.306Z,64.72
2022-10-20T19:21:38.746Z,64.99
2022-10-20T19:24:24.579Z,64.79
2022-10-20T19:27:27.155Z,65.26
2022-10-20T19:30:13.142Z,65.19
2022-10-20T19:32:58.604Z,65.43
2022-10-20T19:35:43.868Z,65.16
2022-10-20T19:38:29.283Z,65.61
2022-10-20T19:41:15.895Z,65.30
2022-10-20T19:44:02.437Z,65.13
2022-10-20T19:46:51.428Z,65.07
2022-10-20T19:49:37.772Z,65.01
2022-10-20T19:52:23.441Z,64.48
2022-10-20T19:55:08.873Z,64.27
2022-10-20T19:57:54.354Z,64.46
2022-10-20T20:00:47.415Z,64.59
2022-10-20T20:03:33.417Z,64.64
2022-10-20T20:06:21.005Z,65.02
2022-10-20T20:09:08.462Z,65.09
2022-10-20T20:11:53.495Z,64.94
2022-10-20T20:14:39.360Z,65.35
2022-10-20T20:17:24.881Z,65.03
2022-10-20T20:20:10.355Z,65.07
2022-10-20T20:22:55.917Z,65.52
2022-10-20T20:25:43.760Z,65.15
2022-10-20T20:28:31.050Z,65.06
2022-10-20T20:31:16.600Z,65.24
2022-10-20T20:34:02.137Z,65.23
2022-10-20T20:36:48.476Z,65.32
2022-10-20T20:39:34.015Z,65.41
2022-10-20T20:42:19.352Z,65.49
2022-10-20T20:45:05.100Z,65.67
2022-10-20T20:47:50.435Z,65.24
2022-10-20T20:50:36.164Z,65.20
2022-10-20T20:53:22.673Z,65.33
2022-10-20T20:56:13.037Z,65.39
2022-10-20T20:58:58.331Z,65.46
2022-10-20T21:01:45.208Z,65.36
2022-10-20T21:04:30.872Z,65.57
2022-10-20T21:07:16.626Z,65.41
2022-10-20T21:10:01.987Z,65.95
2022-10-20T21:12:47.331Z,66.13
2022-10-20T21:15:33.062Z,66.39
2022-10-20T21:18:18.336Z,66.49
2022-10-20T21:21:29.995Z,66.67
2022-10-20T21:24:17.207Z,66.85
2022-10-20T21:27:02.909Z,66.32
2022-10-20T21:29:48.549Z,66.39
2022-10-20T21:32:34.587Z,66.47
2022-10-20T21:35:20.594Z,66.58
2022-10-20T21:38:06.344Z,66.14
2022-10-20T21:40:51.885Z,66.26
2022-10-20T21:43:40.698Z,66.26
2022-10-20T21:46:30.162Z,66.18
2022-10-20T21:49:19.172Z,66.15
2022-10-20T21:52:04.630Z,66.35
2022-10-20T21:54:52.588Z,65.96
2022-10-20T21:57:38.353Z,65.80
2022-10-20T22:00:24.284Z,65.63
2022-10-20T22:03:10.114Z,65.71
2022-10-20T22:05:55.619Z,65.68
2022-10-20T22:08:44.964Z,65.28
2022-10-20T22:11:46.488Z,65.26
2022-10-20T22:14:32.112Z,65.53
2022-10-20T22:17:18.528Z,65.78
2022-10-20T22:20:12.025Z,65.73
2022-10-20T22:23:07.104Z,65.04
2022-10-20T22:25:53.921Z,65.14
2022-10-20T22:28:41.267Z,65.10
2022-10-20T22:31:28.457Z,65.09
2022-10-20T22:34:14.488Z,64.63
2022-10-20T22:37:00.749Z,64.63
2022-10-20T22:39:46.414Z,64.89
2022-10-20T22:42:31.704Z,64.74
2022-10-20T22:45:17.790Z,65.00
2022-10-20T22:48:03.657Z,64.65
2022-10-20T22:50:50.139Z,65.17
2022-10-20T22:53:38.188Z,65.41
2022-10-20T22:56:23.958Z,65.06
2022-10-20T22:59:11.550Z,65.17
2022-10-20T23:02:03.376Z,65.08
2022-10-20T23:04:48.636Z,65.54
2022-10-20T23:07:38.040Z,65.59
2022-10-20T23:10:23.439Z,66.00
2022-10-20T23:13:08.799Z,65.73
2022-10-20T23:15:54.205Z,65.82
2022-10-20T23:18:39.963Z,65.87
2022-10-20T23:21:25.512Z,66.14
2022-10-20T23:24:10.960Z,66.31
2022-10-20T23:26:57.827Z,65.95
2022-10-20T23:29:43.077Z,65.75
2022-10-20T23:32:28.667Z,65.89
2022-10-20T23:35:14.214Z,65.53
2022-10-20T23:38:08.863Z,65.52
2022-10-20T23:41:01.992Z,65.63
2022-10-20T23:44:00.488Z,65.62
2022-10-20T23:46:52.723Z,65.62
2022-10-20T23:49:40.129Z,65.56
2022-10-20T23:52:29.926Z,66.02
2022-10-20T23:55:23.370Z,65.94
2022-10-20T23:58:12.741Z,66.87
